createdAt,value
2017-11-30T00:01:09.996Z,16.63
2017-11-30T00:06:51.361Z,16.63
2017-11-30T00:12:19.506Z,14.03
2017-11-30T00:17:47.657Z,15.00
2017-11-30T00:23:18.835Z,13.90
2017-11-30T00:28:47.025Z,14.23
2017-11-30T00:34:16.111Z,12.73
2017-11-30T00:39:45.005Z,9.77
2017-11-30T00:45:17.375Z,9.00
2017-11-30T00:50:45.490Z,10.23
2017-11-30T00:56:14.393Z,9.10
2017-11-30T01:02:03.356Z,9.10
2017-11-30T01:07:31.515Z,10.47
2017-11-30T01:13:03.439Z,9.83
2017-11-30T01:18:31.590Z,9.80
2017-11-30T01:24:00.513Z,10.50
2017-11-30T01:29:29.421Z,10.87
2017-11-30T01:34:57.812Z,12.10
2017-11-30T01:40:28.251Z,11.73
2017-11-30T01:45:56.400Z,12.20
2017-11-30T01:51:25.125Z,12.80
2017-11-30T01:56:53.283Z,13.03
2017-11-30T02:02:21.421Z,16.87
2017-11-30T02:07:49.579Z,15.47
2017-11-30T02:13:17.712Z,16.67
2017-11-30T02:19:02.537Z,17.90
2017-11-30T02:24:30.676Z,15.30
2017-11-30T02:30:11.100Z,17.30
2017-11-30T02:35:39.475Z,15.20
2017-11-30T02:41:07.609Z,14.50
2017-11-30T02:46:35.748Z,14.13
2017-11-30T02:52:03.886Z,13.97
2017-11-30T02:57:32.040Z,12.63
2017-11-30T03:03:01.015Z,14.23
2017-11-30T03:08:29.935Z,15.87
2017-11-30T03:13:58.102Z,14.50
2017-11-30T03:19:26.250Z,12.67
2017-11-30T03:24:55.426Z,12.90
2017-11-30T03:30:23.587Z,13.07
2017-11-30T03:35:51.757Z,13.17
2017-11-30T03:41:19.896Z,13.03
2017-11-30T03:46:48.054Z,10.63
2017-11-30T03:52:16.201Z,10.80
2017-11-30T03:57:44.354Z,12.40
2017-11-30T04:03:12.494Z,12.00
2017-11-30T04:08:42.588Z,12.70
2017-11-30T04:14:11.495Z,11.50
2017-11-30T04:19:39.644Z,9.67
2017-11-30T04:25:28.185Z,12.00
2017-11-30T04:30:56.337Z,10.53
2017-11-30T04:36:24.723Z,9.50
2017-11-30T04:41:52.883Z,12.60
2017-11-30T04:47:21.026Z,12.40
2017-11-30T04:52:49.947Z,13.20
2017-11-30T04:58:18.100Z,7.57
2017-11-30T05:03:47.019Z,8.00
2017-11-30T05:09:15.922Z,12.27
2017-11-30T05:14:44.072Z,13.47
2017-11-30T05:20:13.245Z,12.30
2017-11-30T05:25:44.970Z,11.03
2017-11-30T05:31:13.122Z,8.80
2017-11-30T05:36:43.232Z,12.63
2017-11-30T05:42:13.094Z,14.80
2017-11-30T05:47:48.466Z,12.00
2017-11-30T05:53:16.641Z,11.97
2017-11-30T05:58:45.750Z,11.07
2017-11-30T06:04:14.671Z,12.10
2017-11-30T06:09:42.825Z,11.20
2017-11-30T06:15:10.985Z,9.30
2017-11-30T06:20:39.148Z,9.17
2017-11-30T06:26:08.070Z,13.67
2017-11-30T06:31:36.241Z,13.03
2017-11-30T06:37:04.394Z,10.20
2017-11-30T06:42:32.552Z,12.47
2017-11-30T06:48:00.720Z,11.87
2017-11-30T06:53:28.891Z,10.97
2017-11-30T06:58:57.805Z,11.60
2017-11-30T07:04:26.736Z,11.00
2017-11-30T07:09:54.908Z,10.30
2017-11-30T07:15:23.099Z,9.30
2017-11-30T07:20:51.254Z,10.43
2017-11-30T07:26:19.412Z,10.07
2017-11-30T07:31:47.591Z,10.17
2017-11-30T07:37:15.739Z,11.00
2017-11-30T07:42:43.881Z,8.87
2017-11-30T07:48:12.017Z,11.20
2017-11-30T07:53:40.948Z,11.03
2017-11-30T07:59:09.865Z,9.50
2017-11-30T08:04:38.002Z,8.73
2017-11-30T08:10:06.211Z,7.27
2017-11-30T08:15:34.389Z,6.57
2017-11-30T08:21:02.528Z,9.63
2017-11-30T08:26:30.677Z,6.40
2017-11-30T08:31:58.825Z,7.97
2017-11-30T08:37:26.999Z,7.20
2017-11-30T08:42:55.152Z,8.17
2017-11-30T08:48:23.300Z,8.07
2017-11-30T08:53:51.435Z,5.47
2017-11-30T08:59:19.571Z,6.23
2017-11-30T09:04:47.726Z,6.70
2017-11-30T09:10:16.666Z,7.40
2017-11-30T09:15:44.807Z,5.57
2017-11-30T09:21:12.975Z,3.70
2017-11-30T09:26:41.142Z,4.63
2017-11-30T09:32:09.311Z,5.20
2017-11-30T09:37:37.448Z,6.03
2017-11-30T09:43:05.673Z,6.00
2017-11-30T09:48:34.652Z,5.33
2017-11-30T09:54:06.115Z,6.10
2017-11-30T09:59:37.033Z,6.10
2017-11-30T10:05:05.313Z,3.43
2017-11-30T10:10:34.248Z,4.80
2017-11-30T10:16:03.210Z,4.57
2017-11-30T10:21:31.374Z,4.60
2017-11-30T10:26:59.531Z,4.43
2017-11-30T10:32:28.470Z,4.23
2017-11-30T10:37:57.375Z,3.50
2017-11-30T10:43:26.381Z,5.00
2017-11-30T10:48:55.522Z,4.47
2017-11-30T10:54:24.605Z,3.03
2017-11-30T11:00:05.321Z,3.70
2017-11-30T11:05:34.446Z,4.80
2017-11-30T11:11:02.597Z,3.23
2017-11-30T11:16:30.736Z,3.60
2017-11-30T11:21:59.660Z,3.97
2017-11-30T11:27:27.836Z,3.30
2017-11-30T11:32:56.018Z,3.50
2017-11-30T11:38:25.080Z,3.20
2017-11-30T11:43:53.523Z,3.27
2017-11-30T11:49:21.751Z,4.37
2017-11-30T11:54:49.954Z,4.57
2017-11-30T12:00:18.121Z,4.77
2017-11-30T12:05:46.273Z,4.07
2017-11-30T12:11:14.419Z,6.57
2017-11-30T12:16:42.575Z,4.40
2017-11-30T12:22:10.714Z,5.93
2017-11-30T12:27:38.853Z,5.30
2017-11-30T12:33:06.992Z,4.90
2017-11-30T12:38:35.145Z,4.97
2017-11-30T12:44:03.277Z,5.20
2017-11-30T12:49:33.352Z,5.30
2017-11-30T12:55:02.274Z,6.40
2017-11-30T13:00:30.408Z,5.00
2017-11-30T13:05:58.559Z,3.73
2017-11-30T13:11:26.723Z,6.23
2017-11-30T13:16:54.892Z,4.73
2017-11-30T13:22:25.058Z,3.10
2017-11-30T13:27:53.509Z,6.47
2017-11-30T13:33:21.672Z,3.70
2017-11-30T13:38:49.814Z,4.57
2017-11-30T13:44:18.733Z,4.10
2017-11-30T13:49:46.853Z,5.17
2017-11-30T13:55:14.995Z,4.33
2017-11-30T14:00:43.135Z,7.13
2017-11-30T14:06:11.274Z,6.20
2017-11-30T14:11:39.398Z,5.77
2017-11-30T14:17:07.544Z,5.00
2017-11-30T14:22:35.660Z,5.10
2017-11-30T14:28:03.785Z,4.63
2017-11-30T14:33:31.926Z,4.70
2017-11-30T14:39:01.725Z,4.63
2017-11-30T14:44:32.522Z,4.37
2017-11-30T14:50:00.655Z,5.43
2017-11-30T14:55:28.782Z,3.93
2017-11-30T15:00:56.914Z,3.20
2017-11-30T15:06:25.845Z,4.77
2017-11-30T15:11:53.995Z,3.50
2017-11-30T15:17:22.136Z,3.50
2017-11-30T15:22:52.233Z,3.53
2017-11-30T15:28:20.678Z,5.23
2017-11-30T15:33:49.587Z,5.20
2017-11-30T15:39:26.288Z,4.40
2017-11-30T15:44:55.260Z,4.37
2017-11-30T15:50:23.439Z,4.87
2017-11-30T15:55:51.614Z,5.47
2017-11-30T16:01:20.514Z,5.33
2017-11-30T16:06:48.658Z,6.43
2017-11-30T16:12:16.805Z,5.20
2017-11-30T16:17:51.396Z,6.50
2017-11-30T16:23:19.539Z,4.67
2017-11-30T16:28:47.690Z,7.40
2017-11-30T16:34:15.810Z,4.93
2017-11-30T16:39:44.684Z,7.17
2017-11-30T16:45:14.736Z,7.10
2017-11-30T16:50:43.634Z,6.40
2017-11-30T16:56:17.412Z,6.27
2017-11-30T17:01:45.576Z,6.83
2017-11-30T17:07:13.744Z,6.97
2017-11-30T17:12:41.886Z,5.20
2017-11-30T17:18:10.809Z,6.43
2017-11-30T17:23:38.960Z,5.87
2017-11-30T17:29:07.095Z,5.90
2017-11-30T17:34:35.231Z,6.67
2017-11-30T17:40:03.380Z,6.40
2017-11-30T17:45:32.306Z,6.27
2017-11-30T17:51:00.477Z,7.07
2017-11-30T17:56:28.641Z,7.10
2017-11-30T18:01:56.814Z,6.60
2017-11-30T18:07:24.981Z,6.83
2017-11-30T18:12:53.137Z,5.80
2017-11-30T18:18:23.015Z,6.03
2017-11-30T18:24:12.855Z,4.60
2017-11-30T18:29:41.002Z,6.07
2017-11-30T18:35:09.287Z,5.40
2017-11-30T18:40:37.452Z,4.70
2017-11-30T18:46:07.657Z,7.47
2017-11-30T18:51:40.079Z,7.73
2017-11-30T18:57:11.940Z,7.07
2017-11-30T19:02:40.089Z,7.13
2017-11-30T19:08:08.222Z,6.50
2017-11-30T19:13:41.204Z,5.60
2017-11-30T19:19:09.355Z,6.50
2017-11-30T19:24:37.517Z,6.27
2017-11-30T19:30:05.826Z,5.90
2017-11-30T19:35:34.738Z,5.73
2017-11-30T19:41:02.877Z,5.03
2017-11-30T19:46:33.748Z,4.93
2017-11-30T19:52:01.916Z,6.30
2017-11-30T19:57:30.140Z,6.00
2017-11-30T20:02:58.325Z,4.27
2017-11-30T20:08:28.223Z,5.23
2017-11-30T20:13:57.332Z,5.70
2017-11-30T20:19:27.501Z,5.37
2017-11-30T20:24:55.707Z,4.80
2017-11-30T20:30:24.933Z,5.00
2017-11-30T20:35:53.093Z,5.47
2017-11-30T20:41:24.452Z,5.57
2017-11-30T20:46:52.652Z,4.20
2017-11-30T20:52:20.788Z,4.50
2017-11-30T20:57:49.885Z,5.10
2017-11-30T21:03:18.028Z,4.47
2017-11-30T21:08:47.097Z,4.30
2017-11-30T21:14:15.255Z,4.10
2017-11-30T21:19:43.397Z,3.73
2017-11-30T21:25:11.601Z,4.20
2017-11-30T21:30:39.744Z,3.90
2017-11-30T21:36:07.977Z,3.90
2017-11-30T21:41:36.274Z,4.93
2017-11-30T21:47:04.484Z,3.93
2017-11-30T21:52:32.811Z,3.40
2017-11-30T21:58:01.107Z,3.47
2017-11-30T22:03:30.011Z,3.70
2017-11-30T22:08:58.168Z,2.93
2017-11-30T22:14:27.083Z,3.50
2017-11-30T22:19:55.235Z,3.90
2017-11-30T22:25:23.398Z,4.40
2017-11-30T22:30:59.415Z,3.20
2017-11-30T22:36:27.579Z,4.03
2017-11-30T22:41:55.737Z,4.80
2017-11-30T22:47:25.840Z,5.00
2017-11-30T22:52:58.004Z,5.80
2017-11-30T22:58:26.153Z,4.93
2017-11-30T23:03:54.335Z,4.40
2017-11-30T23:09:22.532Z,4.33
2017-11-30T23:14:50.748Z,4.97
2017-11-30T23:20:19.649Z,5.43
2017-11-30T23:25:48.678Z,4.50
2017-11-30T23:31:17.068Z,4.13
2017-11-30T23:36:45.966Z,4.47
2017-11-30T23:42:14.135Z,3.73
2017-11-30T23:47:42.468Z,3.47
2017-11-30T23:53:10.612Z,2.87
2017-11-30T23:58:44.347Z,3.83
